Fayetteville, OH

1:29 PM EST on February 11, 2016 (GMT -0500)
Sycamore Ridge | | Change Station
CLOSE
Current Station
Personal Weather Station
Location: Blanchetser, OH
Elevation: 946 ft
Nearby Weather Stations

Elev 946 ft 39.20 °N, 83.94 °W | Updated 6 minutes ago

Partly Cloudy
Partly Cloudy
26.1 °F
Feels Like 26 °F
N
3.0
Wind Variable Wind from NW
Gusts 6.0 mph

Today
High -- | Low -- °F
--% Chance of Precip.
Yesterday
High -- | Low -- °F
Precip. -- in
Pressure 30.26 in
Visibility 10.0 miles
Clouds Overcast 4000 ft
Windchill 26 °F
Dew Point 10 °F
Humidity 51%
Rainfall 0.09 in
Snow Depth Not available.
7:32 AM 6:07 PM
Waxing Crescent, 13% visible
METAR KI69 111816Z AUTO 00000KT 10SM OVC040 M05/M15 A3026 RMK AO2 T10521155
Pressure 30.26 in
Visibility 10.0 miles
Clouds Overcast 4000 ft
Windchill 26 °F
Dew Point 10 °F
Humidity 51%
Rainfall 0.09 in
Snow Depth Not available.
7:32 AM 6:07 PM
Waxing Crescent, 13% visible
METAR KI69 111816Z AUTO 00000KT 10SM OVC040 M05/M15 A3026 RMK AO2 T10521155

10-Day Weather Forecast

Almanac

Astronomy

Feb. 11, 2016 Rise Set
Actual Time
Civil Twilight
Nautical Twilight
Astronomical Twilight
Moon
Length of Visible Light
Length of Day
Tomorrow will be .
, % of the Moon is Illuminated

Today's Extremes

State Highs State Lows

Community

WunderPhotos

Upload Photos

1,892,122 photos uploaded!

WunderBlog® & News

Nearby

Air Quality

  Air Quality AQ Index Pollutant
Not available.

Snow Depth

Station Depth Elevation

Earthquake Activity

City Distance Mag. Time & Date
Minimum magnitude displayed is 2.5.

Coastal Water Temperatures

Place Temperature

Stations

Nearby Weather Stations

Station Location Temp. Windchill Dew Point Humidity Wind Precip. Elev Updated Type
                   

Watches & Warnings

There are currently no watches in effect.